createdAt,value
2019-03-18T00:00:18.006Z,77.99
2019-03-18T00:02:47.409Z,77.76
2019-03-18T00:05:16.838Z,77.69
2019-03-18T00:07:46.200Z,77.30
2019-03-18T00:10:15.606Z,77.33
2019-03-18T00:12:45.005Z,77.32
2019-03-18T00:15:14.474Z,77.66
2019-03-18T00:17:43.861Z,77.51
2019-03-18T00:20:13.331Z,77.93
2019-03-18T00:22:42.847Z,78.26
2019-03-18T00:25:16.563Z,78.29
2019-03-18T00:27:46.021Z,78.08
2019-03-18T00:30:16.659Z,77.36
2019-03-18T00:32:46.121Z,77.05
2019-03-18T00:35:15.554Z,77.73
2019-03-18T00:37:45.077Z,77.98
2019-03-18T00:40:16.229Z,77.55
2019-03-18T00:42:45.796Z,77.20
2019-03-18T00:45:16.011Z,77.84
2019-03-18T00:47:45.398Z,77.69
2019-03-18T00:50:15.959Z,78.22
2019-03-18T00:52:45.369Z,77.91
2019-03-18T00:55:14.939Z,77.95
2019-03-18T00:57:44.323Z,78.30
2019-03-18T01:00:18.245Z,78.50
2019-03-18T01:02:49.845Z,78.55
2019-03-18T01:05:19.660Z,78.31
2019-03-18T01:07:49.065Z,78.07
2019-03-18T01:10:18.622Z,77.76
2019-03-18T01:12:48.022Z,77.97
2019-03-18T01:15:27.537Z,77.63
2019-03-18T01:17:48.521Z,77.75
2019-03-18T01:20:17.949Z,77.78
2019-03-18T01:22:47.334Z,77.70
2019-03-18T01:25:16.725Z,77.66
2019-03-18T01:27:46.134Z,77.80
2019-03-18T01:30:16.100Z,77.84
2019-03-18T01:32:45.483Z,77.96
2019-03-18T01:35:14.890Z,77.94
2019-03-18T01:37:44.274Z,77.84
2019-03-18T01:40:16.627Z,77.78
2019-03-18T01:42:46.018Z,77.90
2019-03-18T01:45:15.453Z,77.70
2019-03-18T01:47:44.832Z,78.21
2019-03-18T01:50:15.173Z,78.16
2019-03-18T01:52:44.570Z,77.70
2019-03-18T01:55:14.148Z,77.21
2019-03-18T01:57:43.536Z,77.15
2019-03-18T02:00:14.498Z,76.92
2019-03-18T02:02:43.887Z,77.12
2019-03-18T02:05:13.368Z,76.93
2019-03-18T02:07:42.766Z,77.65
2019-03-18T02:10:16.247Z,77.48
2019-03-18T02:12:45.714Z,77.34
2019-03-18T02:15:15.859Z,77.08
2019-03-18T02:17:45.249Z,77.12
2019-03-18T02:20:19.587Z,77.06
2019-03-18T02:22:48.815Z,76.67
2019-03-18T02:25:18.233Z,76.61
2019-03-18T02:27:47.616Z,76.52
2019-03-18T02:30:19.741Z,76.61
2019-03-18T02:32:49.158Z,76.72
2019-03-18T02:35:18.565Z,76.53
2019-03-18T02:37:48.016Z,76.41
2019-03-18T02:40:17.424Z,76.47
2019-03-18T02:42:46.820Z,75.97
2019-03-18T02:45:16.230Z,76.19
2019-03-18T02:47:45.621Z,76.47
2019-03-18T02:50:15.047Z,76.93
2019-03-18T02:52:44.429Z,76.74
2019-03-18T02:55:13.835Z,76.88
2019-03-18T02:57:43.231Z,77.16
2019-03-18T03:00:14.218Z,77.27
2019-03-18T03:02:44.026Z,76.74
2019-03-18T03:05:14.457Z,76.93
2019-03-18T03:07:43.850Z,76.65
2019-03-18T03:10:14.179Z,76.46
2019-03-18T03:12:43.654Z,76.11
2019-03-18T03:15:14.547Z,76.08
2019-03-18T03:17:44.126Z,76.41
2019-03-18T03:20:13.832Z,76.58
2019-03-18T03:22:43.328Z,76.37
2019-03-18T03:25:12.905Z,76.22
2019-03-18T03:27:42.326Z,76.23
2019-03-18T03:30:13.933Z,75.78
2019-03-18T03:32:43.343Z,75.72
2019-03-18T03:35:12.796Z,76.42
2019-03-18T03:37:42.186Z,75.60
2019-03-18T03:40:14.600Z,75.89
2019-03-18T03:42:43.984Z,75.83
2019-03-18T03:45:15.382Z,75.63
2019-03-18T03:47:44.828Z,75.51
2019-03-18T03:50:15.212Z,75.65
2019-03-18T03:52:44.568Z,75.76
2019-03-18T03:55:14.702Z,76.42
2019-03-18T03:57:44.520Z,76.32
2019-03-18T04:00:15.363Z,76.20
2019-03-18T04:02:45.118Z,76.63
2019-03-18T04:05:14.489Z,76.47
2019-03-18T04:07:43.905Z,75.91
2019-03-18T04:10:16.265Z,75.83
2019-03-18T04:12:45.785Z,76.21
2019-03-18T04:15:15.872Z,76.66
2019-03-18T04:17:45.298Z,76.34
2019-03-18T04:20:15.964Z,76.18
2019-03-18T04:22:45.551Z,76.81
2019-03-18T04:25:15.079Z,76.83
2019-03-18T04:27:44.489Z,76.03
2019-03-18T04:30:16.814Z,75.62
2019-03-18T04:32:46.235Z,76.05
2019-03-18T04:35:15.738Z,75.79
2019-03-18T04:37:45.133Z,75.99
2019-03-18T04:40:15.273Z,76.23
2019-03-18T04:42:44.679Z,76.16
2019-03-18T04:45:14.150Z,76.00
2019-03-18T04:47:43.551Z,76.26
2019-03-18T04:50:13.776Z,76.11
2019-03-18T04:52:43.185Z,76.03
2019-03-18T04:55:12.588Z,76.03
2019-03-18T04:57:42.022Z,75.82
2019-03-18T05:00:13.535Z,75.83
2019-03-18T05:02:42.998Z,75.93
2019-03-18T05:05:12.465Z,76.47
2019-03-18T05:07:41.901Z,75.87
2019-03-18T05:10:11.516Z,76.27
2019-03-18T05:12:40.918Z,76.46
2019-03-18T05:15:11.095Z,76.67
2019-03-18T05:17:40.497Z,77.00
2019-03-18T05:20:11.128Z,76.65
2019-03-18T05:22:40.549Z,77.00
2019-03-18T05:25:10.794Z,76.44
2019-03-18T05:27:40.273Z,76.74
2019-03-18T05:30:13.856Z,76.75
2019-03-18T05:32:43.265Z,77.06
2019-03-18T05:35:12.664Z,76.86
2019-03-18T05:37:42.183Z,76.82
2019-03-18T05:40:11.886Z,76.73
2019-03-18T05:42:41.284Z,77.63
2019-03-18T05:45:11.504Z,77.37
2019-03-18T05:47:40.912Z,76.75
2019-03-18T05:50:11.436Z,77.42
2019-03-18T05:52:40.850Z,76.81
2019-03-18T05:55:10.698Z,77.09
2019-03-18T05:57:40.104Z,77.30
2019-03-18T06:00:14.272Z,77.31
2019-03-18T06:02:46.690Z,77.88
2019-03-18T06:05:14.936Z,77.88
2019-03-18T06:07:44.433Z,77.68
2019-03-18T06:10:14.100Z,77.58
2019-03-18T06:12:43.522Z,76.77
2019-03-18T06:15:13.470Z,76.45
2019-03-18T06:17:52.503Z,76.89
2019-03-18T06:20:14.040Z,76.30
2019-03-18T06:22:43.454Z,76.29
2019-03-18T06:25:12.997Z,76.09
2019-03-18T06:27:42.383Z,75.89
2019-03-18T06:30:13.228Z,76.18
2019-03-18T06:32:42.794Z,75.77
2019-03-18T06:35:12.528Z,76.39
2019-03-18T06:37:42.537Z,76.10
2019-03-18T06:40:15.296Z,75.32
2019-03-18T06:42:44.674Z,75.25
2019-03-18T06:45:14.256Z,75.22
2019-03-18T06:47:43.648Z,75.10
2019-03-18T06:50:13.685Z,74.64
2019-03-18T06:52:43.134Z,74.54
2019-03-18T06:55:12.761Z,73.84
2019-03-18T06:57:42.158Z,73.77
2019-03-18T07:03:12.223Z,73.93
2019-03-18T07:05:41.639Z,74.29
2019-03-18T07:08:11.060Z,73.30
2019-03-18T07:10:40.527Z,73.31
2019-03-18T07:13:09.969Z,73.96
2019-03-18T07:15:39.359Z,73.14
2019-03-18T07:18:18.142Z,72.16
2019-03-18T07:20:39.943Z,72.19
2019-03-18T07:23:09.343Z,71.96
2019-03-18T07:25:38.801Z,72.25
2019-03-18T07:28:08.289Z,72.22
2019-03-18T07:30:37.680Z,71.73
2019-03-18T07:33:07.096Z,71.78
2019-03-18T07:35:36.506Z,70.99
2019-03-18T07:38:05.924Z,70.99
2019-03-18T07:40:35.311Z,70.98
2019-03-18T07:43:04.900Z,70.81
2019-03-18T07:45:34.306Z,70.88
2019-03-18T07:48:06.384Z,71.12
2019-03-18T07:50:35.040Z,70.71
2019-03-18T07:53:04.465Z,71.25
2019-03-18T07:55:33.856Z,71.20
2019-03-18T07:58:03.268Z,71.07
2019-03-18T08:00:32.642Z,70.79
2019-03-18T08:03:03.480Z,71.52
2019-03-18T08:05:33.200Z,71.44
2019-03-18T08:08:02.610Z,70.22
2019-03-18T08:10:31.998Z,70.30
2019-03-18T08:13:01.401Z,70.08
2019-03-18T08:15:30.833Z,70.02
2019-03-18T08:18:00.236Z,69.74
2019-03-18T08:20:29.622Z,70.12
2019-03-18T08:22:59.047Z,69.94
2019-03-18T08:25:28.442Z,70.05
2019-03-18T08:27:57.841Z,70.51
2019-03-18T08:30:27.237Z,70.22
2019-03-18T08:32:56.647Z,69.39
2019-03-18T08:35:26.033Z,69.34
2019-03-18T08:37:55.417Z,68.93
2019-03-18T08:40:24.827Z,69.50
2019-03-18T08:42:54.220Z,70.46
2019-03-18T08:45:23.633Z,70.53
2019-03-18T08:47:53.027Z,70.71
2019-03-18T08:50:22.444Z,71.41
2019-03-18T08:52:51.916Z,71.61
2019-03-18T08:55:21.341Z,72.35
2019-03-18T08:57:50.720Z,72.60
2019-03-18T09:00:20.295Z,71.84
2019-03-18T09:02:49.701Z,71.79
2019-03-18T09:05:19.195Z,71.65
2019-03-18T09:07:48.593Z,68.99
2019-03-18T09:10:18.543Z,67.02
2019-03-18T09:12:47.931Z,65.79
2019-03-18T09:15:17.357Z,64.52
2019-03-18T09:17:46.759Z,63.67
2019-03-18T09:20:17.439Z,64.12
2019-03-18T09:22:46.931Z,64.45
2019-03-18T09:25:16.360Z,65.00
2019-03-18T09:27:45.744Z,65.07
2019-03-18T09:30:17.370Z,66.36
2019-03-18T09:32:46.927Z,66.33
2019-03-18T09:35:16.352Z,65.94
2019-03-18T09:37:45.742Z,65.83
2019-03-18T09:40:18.139Z,66.25
2019-03-18T09:42:47.530Z,65.25
2019-03-18T09:45:17.783Z,65.85
2019-03-18T09:47:47.261Z,66.54
2019-03-18T09:50:16.923Z,65.95
2019-03-18T09:52:46.320Z,66.15
2019-03-18T09:55:15.726Z,66.96
2019-03-18T09:57:45.109Z,66.93
2019-03-18T10:00:18.624Z,67.76
2019-03-18T10:02:48.016Z,68.12
2019-03-18T10:05:17.747Z,67.04
2019-03-18T10:07:47.138Z,67.20
2019-03-18T10:10:16.608Z,67.13
2019-03-18T10:12:46.012Z,66.27
2019-03-18T10:15:20.108Z,65.90
2019-03-18T10:17:49.654Z,65.82
2019-03-18T10:20:19.058Z,65.73
2019-03-18T10:22:48.524Z,62.58
2019-03-18T10:25:17.962Z,58.52
2019-03-18T10:27:47.367Z,54.97
2019-03-18T10:30:17.208Z,49.71
2019-03-18T10:32:46.618Z,45.37
2019-03-18T10:35:16.102Z,42.58
2019-03-18T10:37:45.494Z,39.63
2019-03-18T10:40:15.195Z,39.57
2019-03-18T10:42:44.580Z,38.30
2019-03-18T10:45:14.654Z,38.86
2019-03-18T10:47:44.054Z,39.35
2019-03-18T10:50:15.685Z,38.63
2019-03-18T10:52:45.259Z,38.96
2019-03-18T10:55:14.649Z,41.84
2019-03-18T10:57:44.079Z,42.47
2019-03-18T11:00:18.530Z,44.01
2019-03-18T11:02:47.924Z,46.55
2019-03-18T11:05:17.411Z,48.05
2019-03-18T11:07:46.816Z,48.90
2019-03-18T11:10:16.767Z,49.07
2019-03-18T11:12:46.151Z,47.88
2019-03-18T11:15:17.406Z,46.47
2019-03-18T11:17:46.809Z,43.34
2019-03-18T11:20:16.763Z,42.71
2019-03-18T11:22:46.163Z,42.74
2019-03-18T11:25:16.525Z,41.94
2019-03-18T11:27:46.031Z,42.03
2019-03-18T11:30:18.490Z,41.66
2019-03-18T11:32:47.906Z,38.53
2019-03-18T11:35:17.395Z,38.63
2019-03-18T11:37:46.943Z,37.63
2019-03-18T11:40:17.667Z,31.57
2019-03-18T11:42:47.168Z,25.49
2019-03-18T11:45:17.129Z,24.03
2019-03-18T11:47:46.514Z,27.72
2019-03-18T11:50:18.026Z,30.96
2019-03-18T11:52:47.529Z,36.02
2019-03-18T11:55:27.071Z,42.84
2019-03-18T11:57:56.539Z,45.77
2019-03-18T12:00:26.696Z,50.67
2019-03-18T12:02:56.189Z,51.78
2019-03-18T12:05:27.783Z,49.76
2019-03-18T12:07:57.198Z,43.47
2019-03-18T12:10:26.683Z,36.12
2019-03-18T12:12:56.175Z,33.15
2019-03-18T12:15:26.644Z,35.25
2019-03-18T12:17:56.233Z,36.46
2019-03-18T12:20:26.066Z,39.89
2019-03-18T12:22:55.694Z,42.37
2019-03-18T12:25:25.106Z,43.68
2019-03-18T12:27:54.524Z,43.63
2019-03-18T12:30:25.157Z,46.32
2019-03-18T12:32:54.572Z,48.57
2019-03-18T12:35:23.973Z,46.20
2019-03-18T12:37:53.533Z,42.49
2019-03-18T12:40:22.931Z,37.94
2019-03-18T12:42:52.356Z,36.19
2019-03-18T12:45:22.513Z,35.11
2019-03-18T12:47:51.933Z,34.01
2019-03-18T12:50:42.873Z,36.78
2019-03-18T12:52:56.993Z,37.74
2019-03-18T12:55:26.378Z,36.17
2019-03-18T12:57:55.825Z,34.58
2019-03-18T13:00:33.036Z,34.63
2019-03-18T13:03:02.531Z,34.97
2019-03-18T13:05:32.036Z,35.17
2019-03-18T13:08:01.527Z,35.96
2019-03-18T13:10:31.545Z,36.07
2019-03-18T13:13:01.001Z,36.51
2019-03-18T13:15:30.420Z,36.40
2019-03-18T13:17:59.988Z,36.69
2019-03-18T13:20:29.431Z,37.23
2019-03-18T13:22:58.854Z,36.87
2019-03-18T13:25:28.287Z,37.83
2019-03-18T13:27:57.707Z,37.50
2019-03-18T13:30:27.130Z,38.13
2019-03-18T13:32:56.556Z,37.99
2019-03-18T13:35:25.970Z,38.56
2019-03-18T13:37:55.430Z,37.29
2019-03-18T13:40:24.883Z,37.94
2019-03-18T13:42:54.292Z,38.66
2019-03-18T13:45:24.299Z,39.47
2019-03-18T13:47:53.753Z,41.31
2019-03-18T13:50:23.296Z,42.12
2019-03-18T13:52:52.691Z,41.81
2019-03-18T13:55:22.129Z,41.90
2019-03-18T13:57:51.543Z,43.86
2019-03-18T14:00:21.916Z,49.60
2019-03-18T14:02:51.483Z,50.45
2019-03-18T14:05:20.920Z,48.60
2019-03-18T14:08:00.278Z,47.50
2019-03-18T14:10:22.907Z,47.30
2019-03-18T14:12:52.360Z,49.24
2019-03-18T14:15:23.757Z,50.23
2019-03-18T14:17:53.185Z,51.52
2019-03-18T14:20:24.812Z,53.20
2019-03-18T14:22:54.480Z,53.47
2019-03-18T14:25:23.876Z,54.87
2019-03-18T14:27:53.298Z,54.46
2019-03-18T14:30:23.631Z,52.48
2019-03-18T14:32:53.132Z,52.88
2019-03-18T14:35:22.533Z,52.79
2019-03-18T14:37:51.972Z,51.22
2019-03-18T14:40:23.544Z,50.76
2019-03-18T14:42:52.949Z,47.15
2019-03-18T14:45:24.178Z,45.56
2019-03-18T14:47:53.677Z,44.83
2019-03-18T14:50:23.108Z,44.79
2019-03-18T14:52:54.042Z,45.82
2019-03-18T14:55:23.524Z,46.91
2019-03-18T14:57:52.958Z,47.52
2019-03-18T15:00:29.465Z,46.71
2019-03-18T15:02:58.899Z,46.87
2019-03-18T15:05:28.389Z,46.70
2019-03-18T15:07:57.807Z,45.86
2019-03-18T15:10:28.309Z,45.82
2019-03-18T15:12:57.687Z,46.22
2019-03-18T15:15:27.120Z,46.66
2019-03-18T15:17:56.511Z,46.28
2019-03-18T15:20:27.871Z,47.20
2019-03-18T15:22:57.461Z,46.13
2019-03-18T15:25:29.110Z,46.56
2019-03-18T15:27:59.453Z,46.41
2019-03-18T15:30:28.881Z,46.60
2019-03-18T15:32:58.280Z,46.23
2019-03-18T15:35:27.687Z,45.78
2019-03-18T15:37:57.104Z,47.02
2019-03-18T15:40:28.519Z,48.05
2019-03-18T15:42:57.937Z,48.20
2019-03-18T15:45:27.338Z,47.66
2019-03-18T15:47:56.746Z,48.11
2019-03-18T15:50:26.917Z,47.81
2019-03-18T15:52:56.304Z,48.61
2019-03-18T15:55:25.698Z,49.62
2019-03-18T15:57:55.204Z,50.10
2019-03-18T16:02:54.400Z,55.47
2019-03-18T16:05:23.820Z,58.30
2019-03-18T16:07:53.228Z,60.93
2019-03-18T16:10:22.632Z,63.05
2019-03-18T16:12:52.130Z,64.03
2019-03-18T16:15:21.532Z,65.26
2019-03-18T16:17:50.958Z,68.26
2019-03-18T16:20:22.408Z,69.83
2019-03-18T16:22:51.807Z,70.65
2019-03-18T16:25:21.241Z,70.13
2019-03-18T16:27:50.630Z,71.75
2019-03-18T16:30:21.967Z,70.41
2019-03-18T16:32:51.368Z,68.72
2019-03-18T16:35:20.784Z,68.85
2019-03-18T16:37:50.186Z,70.46
2019-03-18T16:40:20.785Z,69.02
2019-03-18T16:42:50.177Z,70.12
2019-03-18T16:45:20.440Z,71.36
2019-03-18T16:47:49.826Z,70.32
2019-03-18T16:50:24.661Z,72.15
2019-03-18T16:52:53.988Z,70.80
2019-03-18T16:55:23.413Z,70.57
2019-03-18T16:57:52.851Z,71.25
2019-03-18T17:00:27.010Z,68.83
2019-03-18T17:02:56.403Z,69.03
2019-03-18T17:05:25.804Z,69.01
2019-03-18T17:07:55.226Z,69.51
2019-03-18T17:10:24.661Z,69.01
2019-03-18T17:12:54.080Z,71.24
2019-03-18T17:15:23.514Z,69.69
2019-03-18T17:17:52.928Z,71.41
2019-03-18T17:20:22.353Z,72.90
2019-03-18T17:22:51.739Z,72.55
2019-03-18T17:25:25.734Z,73.12
2019-03-18T17:27:55.207Z,74.51
2019-03-18T17:30:26.629Z,76.25
2019-03-18T17:32:55.711Z,76.12
2019-03-18T17:35:25.142Z,76.93
2019-03-18T17:37:54.527Z,76.13
2019-03-18T17:40:23.955Z,75.42
2019-03-18T17:42:53.329Z,75.60
2019-03-18T17:45:22.759Z,76.05
2019-03-18T17:47:52.219Z,76.16
2019-03-18T17:50:23.407Z,75.73
2019-03-18T17:53:02.279Z,76.08
2019-03-18T17:55:23.958Z,76.32
2019-03-18T17:57:53.442Z,75.08
2019-03-18T18:00:32.584Z,74.71
2019-03-18T18:03:01.833Z,75.85
2019-03-18T18:05:31.310Z,76.80
2019-03-18T18:08:00.962Z,77.33
2019-03-18T18:10:30.359Z,78.17
2019-03-18T18:12:59.797Z,79.30
2019-03-18T18:15:29.194Z,79.60
2019-03-18T18:17:58.585Z,76.40
2019-03-18T18:20:28.009Z,74.58
2019-03-18T18:22:57.439Z,72.21
2019-03-18T18:25:26.867Z,72.42
2019-03-18T18:27:56.257Z,72.19
2019-03-18T18:30:25.685Z,71.69
2019-03-18T18:32:55.070Z,71.95
2019-03-18T18:35:24.520Z,71.22
2019-03-18T18:37:53.913Z,71.59
2019-03-18T18:40:28.558Z,71.87
2019-03-18T18:42:57.972Z,71.87
2019-03-18T18:45:27.400Z,70.86
2019-03-18T18:47:56.795Z,71.11
2019-03-18T18:50:26.207Z,71.24
2019-03-18T18:52:55.639Z,71.45
2019-03-18T18:55:25.026Z,70.53
2019-03-18T18:57:54.461Z,69.88
2019-03-18T19:00:23.930Z,69.62
2019-03-18T19:02:53.354Z,69.44
2019-03-18T19:05:22.766Z,69.65
2019-03-18T19:07:52.157Z,69.60
2019-03-18T19:10:21.872Z,69.64
2019-03-18T19:12:51.258Z,69.51
2019-03-18T19:15:25.658Z,69.71
2019-03-18T19:17:55.182Z,69.77
2019-03-18T19:20:24.560Z,68.76
2019-03-18T19:22:53.986Z,69.71
2019-03-18T19:25:23.370Z,71.10
2019-03-18T19:27:52.862Z,72.07
2019-03-18T19:30:23.123Z,73.35
2019-03-18T19:32:52.615Z,74.26
2019-03-18T19:35:22.026Z,74.98
2019-03-18T19:37:51.632Z,75.90
2019-03-18T19:40:23.133Z,75.97
2019-03-18T19:42:52.714Z,74.29
2019-03-18T19:45:22.095Z,74.68
2019-03-18T19:47:53.193Z,73.94
2019-03-18T19:50:27.856Z,72.23
2019-03-18T19:52:57.366Z,71.55
2019-03-18T19:55:26.765Z,69.62
2019-03-18T19:57:56.164Z,69.24
2019-03-18T20:00:27.056Z,69.11
2019-03-18T20:02:56.529Z,68.80
2019-03-18T20:05:25.931Z,68.91
2019-03-18T20:07:55.347Z,68.95
2019-03-18T20:10:24.787Z,69.17
2019-03-18T20:12:54.282Z,69.24
2019-03-18T20:15:23.676Z,69.48
2019-03-18T20:17:53.099Z,69.06
2019-03-18T20:20:23.736Z,69.96
2019-03-18T20:22:53.182Z,73.69
2019-03-18T20:25:22.593Z,74.35
2019-03-18T20:27:52.020Z,74.73
2019-03-18T20:30:22.171Z,74.52
2019-03-18T20:32:51.759Z,74.95
2019-03-18T20:35:24.790Z,75.18
2019-03-18T20:37:54.209Z,75.44
2019-03-18T20:40:23.607Z,75.56
2019-03-18T20:42:53.071Z,75.50
2019-03-18T20:45:24.624Z,75.90
2019-03-18T20:47:54.172Z,75.96
2019-03-18T20:50:24.470Z,75.99
2019-03-18T20:52:54.007Z,76.03
2019-03-18T20:55:23.402Z,76.26
2019-03-18T20:57:52.820Z,75.88
2019-03-18T21:00:23.273Z,75.91
2019-03-18T21:02:52.704Z,76.16
2019-03-18T21:05:24.814Z,76.67
2019-03-18T21:07:53.290Z,77.21
2019-03-18T21:10:22.674Z,77.57
2019-03-18T21:12:52.087Z,77.92
2019-03-18T21:15:21.482Z,78.10
2019-03-18T21:17:50.913Z,78.09
2019-03-18T21:20:30.926Z,78.19
2019-03-18T21:23:00.347Z,78.39
2019-03-18T21:25:29.742Z,78.33
2019-03-18T21:27:59.157Z,78.82
2019-03-18T21:30:28.561Z,79.27
2019-03-18T21:32:58.066Z,79.56
2019-03-18T21:35:27.504Z,79.67
2019-03-18T21:37:56.940Z,79.70
2019-03-18T21:40:26.517Z,79.94
2019-03-18T21:42:56.495Z,79.92
2019-03-18T21:45:26.421Z,80.09
2019-03-18T21:47:56.232Z,80.18
2019-03-18T21:50:25.922Z,80.25
2019-03-18T21:52:55.345Z,80.50
2019-03-18T21:55:25.622Z,80.46
2019-03-18T21:57:55.038Z,80.34
2019-03-18T22:00:24.528Z,80.27
2019-03-18T22:02:53.945Z,80.69
2019-03-18T22:05:23.350Z,81.02
2019-03-18T22:07:52.773Z,81.26
2019-03-18T22:10:22.253Z,81.39
2019-03-18T22:12:51.685Z,81.76
2019-03-18T22:15:21.567Z,81.77
2019-03-18T22:17:51.507Z,81.82
2019-03-18T22:20:22.886Z,81.69
2019-03-18T22:22:52.357Z,81.35
2019-03-18T22:25:21.833Z,81.26
2019-03-18T22:27:51.323Z,81.23
2019-03-18T22:30:20.825Z,81.26
2019-03-18T22:32:50.210Z,81.13
2019-03-18T22:35:19.617Z,81.32
2019-03-18T22:37:49.051Z,81.47
2019-03-18T22:40:19.113Z,81.95
2019-03-18T22:42:48.536Z,81.84
2019-03-18T22:45:18.503Z,81.65
2019-03-18T22:47:47.979Z,81.16
2019-03-18T22:50:17.810Z,80.83
2019-03-18T22:52:47.231Z,80.73
2019-03-18T22:55:16.711Z,80.68
2019-03-18T22:57:46.123Z,80.64
2019-03-18T23:00:26.700Z,80.70
2019-03-18T23:02:56.310Z,80.69
2019-03-18T23:05:25.800Z,80.69
2019-03-18T23:07:55.208Z,80.71
2019-03-18T23:10:24.630Z,80.67
2019-03-18T23:12:54.038Z,80.73
2019-03-18T23:15:23.514Z,80.76
2019-03-18T23:17:52.917Z,80.44
2019-03-18T23:20:22.340Z,80.00
2019-03-18T23:22:51.742Z,79.80
2019-03-18T23:25:21.153Z,79.94
2019-03-18T23:27:50.562Z,80.17
2019-03-18T23:30:19.986Z,80.25
2019-03-18T23:32:49.511Z,80.31
2019-03-18T23:35:18.946Z,80.43
2019-03-18T23:37:48.325Z,80.61
2019-03-18T23:40:17.744Z,80.94
2019-03-18T23:42:47.140Z,81.27
2019-03-18T23:45:16.630Z,81.05
2019-03-18T23:47:46.033Z,81.05
2019-03-18T23:50:16.368Z,81.32
2019-03-18T23:52:45.784Z,81.40
2019-03-18T23:55:19.686Z,81.57
2019-03-18T23:57:46.306Z,81.64
